sensor_id;sensor_type;location;lat;lon;timestamp;temperature;humidity
71237;DHT22;58984;51.960;5.582;2023-06-10T00:00:12;26.70;48.70
71237;DHT22;58984;51.960;5.582;2023-06-10T00:02:40;26.70;48.80
71237;DHT22;58984;51.960;5.582;2023-06-10T00:05:06;26.70;48.70
71237;DHT22;58984;51.960;5.582;2023-06-10T00:07:33;26.70;48.70
71237;DHT22;58984;51.960;5.582;2023-06-10T00:09:59;26.70;48.70
71237;DHT22;58984;51.960;5.582;2023-06-10T00:12:25;26.60;48.70
71237;DHT22;58984;51.960;5.582;2023-06-10T00:14:51;26.60;48.60
71237;DHT22;58984;51.960;5.582;2023-06-10T00:17:18;26.60;48.70
71237;DHT22;58984;51.960;5.582;2023-06-10T00:19:44;26.60;48.70
71237;DHT22;58984;51.960;5.582;2023-06-10T00:22:12;26.50;48.60
71237;DHT22;58984;51.960;5.582;2023-06-10T00:24:38;26.50;48.70
71237;DHT22;58984;51.960;5.582;2023-06-10T00:27:04;26.50;48.60
71237;DHT22;58984;51.960;5.582;2023-06-10T00:29:30;26.50;48.70
71237;DHT22;58984;51.960;5.582;2023-06-10T00:31:56;26.50;48.70
71237;DHT22;58984;51.960;5.582;2023-06-10T00:34:23;26.50;48.70
71237;DHT22;58984;51.960;5.582;2023-06-10T00:36:49;26.40;48.60
71237;DHT22;58984;51.960;5.582;2023-06-10T00:39:14;26.40;48.60
71237;DHT22;58984;51.960;5.582;2023-06-10T00:41:40;26.40;48.60
71237;DHT22;58984;51.960;5.582;2023-06-10T00:44:06;26.40;48.60
71237;DHT22;58984;51.960;5.582;2023-06-10T00:46:32;26.40;48.60
71237;DHT22;58984;51.960;5.582;2023-06-10T00:48:59;26.40;48.70
71237;DHT22;58984;51.960;5.582;2023-06-10T00:51:25;26.30;48.70
71237;DHT22;58984;51.960;5.582;2023-06-10T00:53:52;26.30;48.70
71237;DHT22;58984;51.960;5.582;2023-06-10T00:56:18;26.30;48.80
71237;DHT22;58984;51.960;5.582;2023-06-10T00:58:44;26.30;48.70
71237;DHT22;58984;51.960;5.582;2023-06-10T01:01:10;26.30;48.70
71237;DHT22;58984;51.960;5.582;2023-06-10T01:03:41;26.20;48.70
71237;DHT22;58984;51.960;5.582;2023-06-10T01:12:14;26.10;48.70
71237;DHT22;58984;51.960;5.582;2023-06-10T01:14:37;26.30;48.70
71237;DHT22;58984;51.960;5.582;2023-06-10T01:17:04;26.30;48.50
71237;DHT22;58984;51.960;5.582;2023-06-10T01:19:30;26.20;48.50
71237;DHT22;58984;51.960;5.582;2023-06-10T01:21:57;26.10;48.60
71237;DHT22;58984;51.960;5.582;2023-06-10T01:24:26;26.10;48.70
71237;DHT22;58984;51.960;5.582;2023-06-10T01:26:53;26.10;48.70
71237;DHT22;58984;51.960;5.582;2023-06-10T01:29:36;26.10;48.70
71237;DHT22;58984;51.960;5.582;2023-06-10T01:32:18;26.00;48.70
71237;DHT22;58984;51.960;5.582;2023-06-10T01:34:45;26.00;48.60
71237;DHT22;58984;51.960;5.582;2023-06-10T01:37:13;26.00;48.60
71237;DHT22;58984;51.960;5.582;2023-06-10T01:39:42;26.00;48.60
71237;DHT22;58984;51.960;5.582;2023-06-10T01:42:08;25.90;48.60
71237;DHT22;58984;51.960;5.582;2023-06-10T01:44:35;26.00;48.60
71237;DHT22;58984;51.960;5.582;2023-06-10T01:47:01;25.90;48.60
71237;DHT22;58984;51.960;5.582;2023-06-10T01:49:26;25.90;48.50
71237;DHT22;58984;51.960;5.582;2023-06-10T01:51:54;25.90;48.50
71237;DHT22;58984;51.960;5.582;2023-06-10T01:54:19;25.90;48.50
71237;DHT22;58984;51.960;5.582;2023-06-10T01:56:45;25.90;48.60
71237;DHT22;58984;51.960;5.582;2023-06-10T01:59:10;25.90;48.60
71237;DHT22;58984;51.960;5.582;2023-06-10T02:01:36;25.90;48.50
71237;DHT22;58984;51.960;5.582;2023-06-10T02:04:01;25.90;49.20
71237;DHT22;58984;51.960;5.582;2023-06-10T02:06:27;25.80;48.40
71237;DHT22;58984;51.960;5.582;2023-06-10T02:08:53;25.80;48.40
71237;DHT22;58984;51.960;5.582;2023-06-10T02:11:18;25.80;48.40
71237;DHT22;58984;51.960;5.582;2023-06-10T02:13:44;25.80;48.40
71237;DHT22;58984;51.960;5.582;2023-06-10T02:16:09;25.80;48.40
71237;DHT22;58984;51.960;5.582;2023-06-10T02:18:38;25.80;48.40
71237;DHT22;58984;51.960;5.582;2023-06-10T02:21:06;25.80;48.40
71237;DHT22;58984;51.960;5.582;2023-06-10T02:23:32;25.70;48.30
71237;DHT22;58984;51.960;5.582;2023-06-10T02:25:58;25.80;48.40
71237;DHT22;58984;51.960;5.582;2023-06-10T02:28:23;25.70;48.20
71237;DHT22;58984;51.960;5.582;2023-06-10T02:30:49;25.70;48.20
71237;DHT22;58984;51.960;5.582;2023-06-10T02:33:15;25.70;48.20
71237;DHT22;58984;51.960;5.582;2023-06-10T02:35:41;25.60;48.10
71237;DHT22;58984;51.960;5.582;2023-06-10T02:38:06;25.60;48.10
71237;DHT22;58984;51.960;5.582;2023-06-10T02:40:32;25.60;48.10
71237;DHT22;58984;51.960;5.582;2023-06-10T02:42:58;25.60;48.10
71237;DHT22;58984;51.960;5.582;2023-06-10T02:45:24;25.60;48.10
71237;DHT22;58984;51.960;5.582;2023-06-10T02:47:49;25.60;48.10
71237;DHT22;58984;51.960;5.582;2023-06-10T02:50:15;25.60;48.10
71237;DHT22;58984;51.960;5.582;2023-06-10T02:52:41;25.50;48.00
71237;DHT22;58984;51.960;5.582;2023-06-10T02:55:07;25.50;48.00
71237;DHT22;58984;51.960;5.582;2023-06-10T02:57:32;25.50;48.10
71237;DHT22;58984;51.960;5.582;2023-06-10T02:59:58;25.50;48.10
71237;DHT22;58984;51.960;5.582;2023-06-10T03:02:24;25.50;48.10
71237;DHT22;58984;51.960;5.582;2023-06-10T03:04:55;25.50;48.10
71237;DHT22;58984;51.960;5.582;2023-06-10T03:07:20;25.50;48.10
71237;DHT22;58984;51.960;5.582;2023-06-10T03:09:46;25.50;48.10
71237;DHT22;58984;51.960;5.582;2023-06-10T03:12:12;25.50;48.10
71237;DHT22;58984;51.960;5.582;2023-06-10T03:14:37;25.40;48.00
71237;DHT22;58984;51.960;5.582;2023-06-10T03:17:04;25.40;48.20
71237;DHT22;58984;51.960;5.582;2023-06-10T03:19:30;25.40;48.20
71237;DHT22;58984;51.960;5.582;2023-06-10T03:22:13;25.40;48.20
71237;DHT22;58984;51.960;5.582;2023-06-10T03:24:39;25.30;48.30
71237;DHT22;58984;51.960;5.582;2023-06-10T03:27:09;25.40;48.20
71237;DHT22;58984;51.960;5.582;2023-06-10T03:29:35;25.30;48.20
71237;DHT22;58984;51.960;5.582;2023-06-10T03:32:01;25.30;48.20
71237;DHT22;58984;51.960;5.582;2023-06-10T03:34:27;25.30;48.20
71237;DHT22;58984;51.960;5.582;2023-06-10T03:36:52;25.30;48.20
71237;DHT22;58984;51.960;5.582;2023-06-10T03:39:18;25.30;48.30
71237;DHT22;58984;51.960;5.582;2023-06-10T03:41:43;25.30;48.30
71237;DHT22;58984;51.960;5.582;2023-06-10T03:44:09;25.30;48.30
71237;DHT22;58984;51.960;5.582;2023-06-10T03:46:35;25.20;48.30
71237;DHT22;58984;51.960;5.582;2023-06-10T03:49:00;25.20;48.40
71237;DHT22;58984;51.960;5.582;2023-06-10T03:51:26;25.20;48.40
71237;DHT22;58984;51.960;5.582;2023-06-10T03:53:52;25.20;48.50
71237;DHT22;58984;51.960;5.582;2023-06-10T03:56:18;25.20;49.20
71237;DHT22;58984;51.960;5.582;2023-06-10T03:58:43;25.20;48.50
71237;DHT22;58984;51.960;5.582;2023-06-10T04:01:09;25.20;48.60
71237;DHT22;58984;51.960;5.582;2023-06-10T04:03:36;25.20;48.60
71237;DHT22;58984;51.960;5.582;2023-06-10T04:06:01;25.20;48.60
71237;DHT22;58984;51.960;5.582;2023-06-10T04:08:28;25.20;48.70
71237;DHT22;58984;51.960;5.582;2023-06-10T04:10:53;25.10;48.60
71237;DHT22;58984;51.960;5.582;2023-06-10T04:13:19;25.10;49.40
71237;DHT22;58984;51.960;5.582;2023-06-10T04:15:45;25.10;48.70
71237;DHT22;58984;51.960;5.582;2023-06-10T04:18:10;25.10;48.80
71237;DHT22;58984;51.960;5.582;2023-06-10T04:20:36;25.10;48.80
71237;DHT22;58984;51.960;5.582;2023-06-10T04:23:02;25.10;48.90
71237;DHT22;58984;51.960;5.582;2023-06-10T04:25:27;25.10;48.90
71237;DHT22;58984;51.960;5.582;2023-06-10T04:27:54;25.00;48.80
71237;DHT22;58984;51.960;5.582;2023-06-10T04:30:19;25.00;49.00
71237;DHT22;58984;51.960;5.582;2023-06-10T04:32:45;25.00;49.00
71237;DHT22;58984;51.960;5.582;2023-06-10T04:35:12;25.00;49.00
71237;DHT22;58984;51.960;5.582;2023-06-10T04:37:39;25.00;49.00
71237;DHT22;58984;51.960;5.582;2023-06-10T04:40:07;25.00;49.00
71237;DHT22;58984;51.960;5.582;2023-06-10T04:42:32;25.00;49.10
71237;DHT22;58984;51.960;5.582;2023-06-10T04:44:58;25.00;49.30
71237;DHT22;58984;51.960;5.582;2023-06-10T04:47:24;25.00;49.30
71237;DHT22;58984;51.960;5.582;2023-06-10T04:49:49;24.90;49.30
71237;DHT22;58984;51.960;5.582;2023-06-10T04:52:15;25.00;49.30
71237;DHT22;58984;51.960;5.582;2023-06-10T04:54:40;24.90;49.30
71237;DHT22;58984;51.960;5.582;2023-06-10T04:57:07;24.90;49.40
71237;DHT22;58984;51.960;5.582;2023-06-10T04:59:33;24.90;49.40
71237;DHT22;58984;51.960;5.582;2023-06-10T05:02:03;24.90;49.40
71237;DHT22;58984;51.960;5.582;2023-06-10T05:04:28;24.90;49.60
71237;DHT22;58984;51.960;5.582;2023-06-10T05:06:55;24.90;49.60
71237;DHT22;58984;51.960;5.582;2023-06-10T05:09:20;24.90;49.60
71237;DHT22;58984;51.960;5.582;2023-06-10T05:11:46;24.90;49.70
71237;DHT22;58984;51.960;5.582;2023-06-10T05:14:12;24.90;49.60
71237;DHT22;58984;51.960;5.582;2023-06-10T05:16:38;24.90;49.60
71237;DHT22;58984;51.960;5.582;2023-06-10T05:19:04;24.90;50.10
71237;DHT22;58984;51.960;5.582;2023-06-10T05:21:30;24.90;49.70
71237;DHT22;58984;51.960;5.582;2023-06-10T05:23:55;24.90;49.80
71237;DHT22;58984;51.960;5.582;2023-06-10T05:26:21;24.90;49.70
71237;DHT22;58984;51.960;5.582;2023-06-10T05:28:47;24.90;49.80
71237;DHT22;58984;51.960;5.582;2023-06-10T05:31:12;24.90;49.80
71237;DHT22;58984;51.960;5.582;2023-06-10T05:33:39;24.90;50.00
71237;DHT22;58984;51.960;5.582;2023-06-10T05:36:04;24.90;49.90
71237;DHT22;58984;51.960;5.582;2023-06-10T05:38:30;24.90;50.00
71237;DHT22;58984;51.960;5.582;2023-06-10T05:40:56;24.90;50.10
71237;DHT22;58984;51.960;5.582;2023-06-10T05:43:22;24.80;50.00
71237;DHT22;58984;51.960;5.582;2023-06-10T05:45:48;24.80;50.00
71237;DHT22;58984;51.960;5.582;2023-06-10T05:48:13;24.90;50.10
71237;DHT22;58984;51.960;5.582;2023-06-10T05:50:39;24.90;50.10
71237;DHT22;58984;51.960;5.582;2023-06-10T05:53:08;24.80;50.10
71237;DHT22;58984;51.960;5.582;2023-06-10T05:55:43;24.80;50.10
71237;DHT22;58984;51.960;5.582;2023-06-10T05:58:09;24.80;50.10
71237;DHT22;58984;51.960;5.582;2023-06-10T06:00:35;24.80;50.20
71237;DHT22;58984;51.960;5.582;2023-06-10T06:03:01;24.80;50.20
71237;DHT22;58984;51.960;5.582;2023-06-10T06:05:26;24.80;50.20
71237;DHT22;58984;51.960;5.582;2023-06-10T06:07:52;24.80;50.30
71237;DHT22;58984;51.960;5.582;2023-06-10T06:10:18;24.80;50.30
71237;DHT22;58984;51.960;5.582;2023-06-10T06:12:44;24.80;50.30
71237;DHT22;58984;51.960;5.582;2023-06-10T06:15:11;24.80;50.30
71237;DHT22;58984;51.960;5.582;2023-06-10T06:17:36;24.90;50.50
71237;DHT22;58984;51.960;5.582;2023-06-10T06:20:03;24.90;50.50
71237;DHT22;58984;51.960;5.582;2023-06-10T06:22:29;24.80;50.50
71237;DHT22;58984;51.960;5.582;2023-06-10T06:24:54;24.80;50.50
71237;DHT22;58984;51.960;5.582;2023-06-10T06:27:20;24.80;50.50
71237;DHT22;58984;51.960;5.582;2023-06-10T06:29:46;24.80;50.50
71237;DHT22;58984;51.960;5.582;2023-06-10T06:32:12;24.90;50.60
71237;DHT22;58984;51.960;5.582;2023-06-10T06:34:37;24.90;50.60
71237;DHT22;58984;51.960;5.582;2023-06-10T06:37:03;24.80;50.60
71237;DHT22;58984;51.960;5.582;2023-06-10T06:39:29;24.90;50.70
71237;DHT22;58984;51.960;5.582;2023-06-10T06:41:54;24.90;50.70
71237;DHT22;58984;51.960;5.582;2023-06-10T06:44:20;24.90;50.70
71237;DHT22;58984;51.960;5.582;2023-06-10T06:46:45;24.90;50.70
71237;DHT22;58984;51.960;5.582;2023-06-10T06:49:11;24.90;50.70
71237;DHT22;58984;51.960;5.582;2023-06-10T06:51:37;24.90;50.80
71237;DHT22;58984;51.960;5.582;2023-06-10T06:54:02;24.90;50.90
71237;DHT22;58984;51.960;5.582;2023-06-10T06:56:28;25.00;51.00
71237;DHT22;58984;51.960;5.582;2023-06-10T06:58:53;25.00;51.00
71237;DHT22;58984;51.960;5.582;2023-06-10T07:01:19;25.00;51.00
71237;DHT22;58984;51.960;5.582;2023-06-10T07:03:45;25.00;50.90
71237;DHT22;58984;51.960;5.582;2023-06-10T07:06:12;25.00;51.00
71237;DHT22;58984;51.960;5.582;2023-06-10T07:08:38;25.00;51.00
71237;DHT22;58984;51.960;5.582;2023-06-10T07:11:04;25.10;51.00
71237;DHT22;58984;51.960;5.582;2023-06-10T07:13:29;25.10;51.10
71237;DHT22;58984;51.960;5.582;2023-06-10T07:15:55;25.10;51.10
71237;DHT22;58984;51.960;5.582;2023-06-10T07:18:20;25.20;51.20
71237;DHT22;58984;51.960;5.582;2023-06-10T07:20:46;25.20;51.20
71237;DHT22;58984;51.960;5.582;2023-06-10T07:23:13;25.20;51.30
71237;DHT22;58984;51.960;5.582;2023-06-10T07:25:38;25.20;51.30
71237;DHT22;58984;51.960;5.582;2023-06-10T07:28:04;25.20;51.30
71237;DHT22;58984;51.960;5.582;2023-06-10T07:30:29;25.30;51.40
71237;DHT22;58984;51.960;5.582;2023-06-10T07:32:55;25.30;51.50
71237;DHT22;58984;51.960;5.582;2023-06-10T07:35:21;25.40;51.50
71237;DHT22;58984;51.960;5.582;2023-06-10T07:37:46;25.40;51.50
71237;DHT22;58984;51.960;5.582;2023-06-10T07:40:12;25.40;51.50
71237;DHT22;58984;51.960;5.582;2023-06-10T07:42:38;25.50;51.70
71237;DHT22;58984;51.960;5.582;2023-06-10T07:45:04;25.50;51.60
71237;DHT22;58984;51.960;5.582;2023-06-10T07:47:30;25.50;51.60
71237;DHT22;58984;51.960;5.582;2023-06-10T07:49:56;25.50;51.60
71237;DHT22;58984;51.960;5.582;2023-06-10T07:52:22;25.60;51.70
71237;DHT22;58984;51.960;5.582;2023-06-10T07:54:47;25.60;51.70
71237;DHT22;58984;51.960;5.582;2023-06-10T07:57:13;25.70;51.70
71237;DHT22;58984;51.960;5.582;2023-06-10T07:59:38;25.70;51.60
71237;DHT22;58984;51.960;5.582;2023-06-10T08:02:04;25.80;51.70
71237;DHT22;58984;51.960;5.582;2023-06-10T08:04:30;25.80;51.70
71237;DHT22;58984;51.960;5.582;2023-06-10T08:06:56;25.80;51.70
71237;DHT22;58984;51.960;5.582;2023-06-10T08:09:22;25.90;51.70
71237;DHT22;58984;51.960;5.582;2023-06-10T08:11:48;25.90;51.60
71237;DHT22;58984;51.960;5.582;2023-06-10T08:14:15;25.90;51.70
71237;DHT22;58984;51.960;5.582;2023-06-10T08:16:42;26.00;51.60
71237;DHT22;58984;51.960;5.582;2023-06-10T08:19:08;26.10;51.60
71237;DHT22;58984;51.960;5.582;2023-06-10T08:21:34;26.10;51.60
71237;DHT22;58984;51.960;5.582;2023-06-10T08:24:01;26.10;51.60
71237;DHT22;58984;51.960;5.582;2023-06-10T08:26:27;26.20;51.60
71237;DHT22;58984;51.960;5.582;2023-06-10T08:28:53;26.20;51.50
71237;DHT22;58984;51.960;5.582;2023-06-10T08:31:19;26.30;51.50
71237;DHT22;58984;51.960;5.582;2023-06-10T08:33:45;26.30;51.40
71237;DHT22;58984;51.960;5.582;2023-06-10T08:36:10;26.40;51.50
71237;DHT22;58984;51.960;5.582;2023-06-10T08:38:36;26.40;51.50
71237;DHT22;58984;51.960;5.582;2023-06-10T08:41:05;26.50;51.50
71237;DHT22;58984;51.960;5.582;2023-06-10T08:43:38;26.50;51.60
71237;DHT22;58984;51.960;5.582;2023-06-10T08:46:07;26.50;51.60
71237;DHT22;58984;51.960;5.582;2023-06-10T08:48:35;26.60;51.50
71237;DHT22;58984;51.960;5.582;2023-06-10T08:51:04;26.70;51.70
71237;DHT22;58984;51.960;5.582;2023-06-10T08:53:30;26.70;51.50
71237;DHT22;58984;51.960;5.582;2023-06-10T08:55:58;26.70;51.00
71237;DHT22;58984;51.960;5.582;2023-06-10T08:58:27;26.80;51.50
71237;DHT22;58984;51.960;5.582;2023-06-10T09:00:53;26.90;51.40
71237;DHT22;58984;51.960;5.582;2023-06-10T09:03:19;27.00;51.50
71237;DHT22;58984;51.960;5.582;2023-06-10T09:05:45;27.00;51.50
71237;DHT22;58984;51.960;5.582;2023-06-10T09:08:11;27.10;51.50
71237;DHT22;58984;51.960;5.582;2023-06-10T09:10:37;27.10;51.50
71237;DHT22;58984;51.960;5.582;2023-06-10T09:13:03;27.20;51.50
71237;DHT22;58984;51.960;5.582;2023-06-10T09:15:29;27.20;51.50
71237;DHT22;58984;51.960;5.582;2023-06-10T09:17:54;27.30;51.50
71237;DHT22;58984;51.960;5.582;2023-06-10T09:20:20;27.30;51.50
71237;DHT22;58984;51.960;5.582;2023-06-10T09:22:46;27.40;51.50
71237;DHT22;58984;51.960;5.582;2023-06-10T09:25:12;27.50;51.50
71237;DHT22;58984;51.960;5.582;2023-06-10T09:27:51;27.50;51.50
71237;DHT22;58984;51.960;5.582;2023-06-10T09:32:55;27.60;51.50
71237;DHT22;58984;51.960;5.582;2023-06-10T09:35:22;27.70;51.50
71237;DHT22;58984;51.960;5.582;2023-06-10T09:37:51;27.70;51.50
71237;DHT22;58984;51.960;5.582;2023-06-10T09:40:17;27.80;51.70
71237;DHT22;58984;51.960;5.582;2023-06-10T09:42:42;27.80;51.60
71237;DHT22;58984;51.960;5.582;2023-06-10T09:45:08;27.90;51.60
71237;DHT22;58984;51.960;5.582;2023-06-10T09:47:34;28.00;51.60
71237;DHT22;58984;51.960;5.582;2023-06-10T09:50:00;28.00;51.60
71237;DHT22;58984;51.960;5.582;2023-06-10T09:52:28;28.10;51.60
71237;DHT22;58984;51.960;5.582;2023-06-10T09:55:01;28.10;51.50
71237;DHT22;58984;51.960;5.582;2023-06-10T09:57:31;28.10;51.50
71237;DHT22;58984;51.960;5.582;2023-06-10T09:59:58;28.20;51.50
71237;DHT22;58984;51.960;5.582;2023-06-10T10:02:23;28.30;51.50
71237;DHT22;58984;51.960;5.582;2023-06-10T10:04:49;28.40;51.50
71237;DHT22;58984;51.960;5.582;2023-06-10T10:07:14;28.40;51.50
71237;DHT22;58984;51.960;5.582;2023-06-10T10:09:41;28.40;51.50
71237;DHT22;58984;51.960;5.582;2023-06-10T10:12:11;28.50;51.50
71237;DHT22;58984;51.960;5.582;2023-06-10T10:14:38;28.50;51.50
71237;DHT22;58984;51.960;5.582;2023-06-10T10:17:10;28.50;51.30
71237;DHT22;58984;51.960;5.582;2023-06-10T10:20:02;28.50;51.40
71237;DHT22;58984;51.960;5.582;2023-06-10T10:22:34;28.60;51.60
71237;DHT22;58984;51.960;5.582;2023-06-10T10:25:04;28.70;51.30
71237;DHT22;58984;51.960;5.582;2023-06-10T10:27:35;28.80;51.30
71237;DHT22;58984;51.960;5.582;2023-06-10T10:30:01;28.80;51.40
71237;DHT22;58984;51.960;5.582;2023-06-10T10:35:21;28.80;51.40
71237;DHT22;58984;51.960;5.582;2023-06-10T10:37:49;28.90;51.50
71237;DHT22;58984;51.960;5.582;2023-06-10T10:40:15;29.00;51.30
71237;DHT22;58984;51.960;5.582;2023-06-10T10:42:42;29.00;51.30
71237;DHT22;58984;51.960;5.582;2023-06-10T10:45:09;29.10;51.30
71237;DHT22;58984;51.960;5.582;2023-06-10T10:47:36;29.10;51.30
71237;DHT22;58984;51.960;5.582;2023-06-10T10:50:16;29.10;51.10
71237;DHT22;58984;51.960;5.582;2023-06-10T10:52:55;29.10;51.10
71237;DHT22;58984;51.960;5.582;2023-06-10T10:55:25;29.20;51.10
71237;DHT22;58984;51.960;5.582;2023-06-10T11:00:33;29.20;50.90
71237;DHT22;58984;51.960;5.582;2023-06-10T11:03:13;29.30;50.90
71237;DHT22;58984;51.960;5.582;2023-06-10T11:05:44;29.30;50.80
71237;DHT22;58984;51.960;5.582;2023-06-10T11:08:13;29.40;50.70
71237;DHT22;58984;51.960;5.582;2023-06-10T11:10:51;29.60;50.30
71237;DHT22;58984;51.960;5.582;2023-06-10T11:13:21;29.40;50.60
71237;DHT22;58984;51.960;5.582;2023-06-10T11:15:49;29.60;50.60
71237;DHT22;58984;51.960;5.582;2023-06-10T11:18:24;29.60;50.60
71237;DHT22;58984;51.960;5.582;2023-06-10T11:20:51;29.60;50.60
71237;DHT22;58984;51.960;5.582;2023-06-10T11:26:14;29.60;50.30
71237;DHT22;58984;51.960;5.582;2023-06-10T11:29:02;29.60;50.30
71237;DHT22;58984;51.960;5.582;2023-06-10T11:31:39;29.70;50.20
71237;DHT22;58984;51.960;5.582;2023-06-10T11:34:07;29.70;50.00
71237;DHT22;58984;51.960;5.582;2023-06-10T11:36:36;29.80;49.90
71237;DHT22;58984;51.960;5.582;2023-06-10T11:39:04;29.80;49.70
71237;DHT22;58984;51.960;5.582;2023-06-10T11:41:31;29.90;49.80
71237;DHT22;58984;51.960;5.582;2023-06-10T11:44:01;29.90;49.80
71237;DHT22;58984;51.960;5.582;2023-06-10T11:46:27;30.00;49.80
71237;DHT22;58984;51.960;5.582;2023-06-10T11:49:03;30.00;49.70
71237;DHT22;58984;51.960;5.582;2023-06-10T11:51:31;30.00;49.50
71237;DHT22;58984;51.960;5.582;2023-06-10T11:53:57;30.10;49.60
71237;DHT22;58984;51.960;5.582;2023-06-10T11:56:25;30.10;49.50
71237;DHT22;58984;51.960;5.582;2023-06-10T11:59:17;30.10;49.50
71237;DHT22;58984;51.960;5.582;2023-06-10T12:01:46;30.00;50.20
71237;DHT22;58984;51.960;5.582;2023-06-10T12:04:14;30.20;49.40
71237;DHT22;58984;51.960;5.582;2023-06-10T12:06:51;30.20;49.30
71237;DHT22;58984;51.960;5.582;2023-06-10T12:09:22;30.20;49.30
71237;DHT22;58984;51.960;5.582;2023-06-10T12:11:57;30.20;49.20
71237;DHT22;58984;51.960;5.582;2023-06-10T12:17:38;30.20;49.30
71237;DHT22;58984;51.960;5.582;2023-06-10T12:20:06;30.30;49.20
71237;DHT22;58984;51.960;5.582;2023-06-10T12:22:40;30.30;49.20
71237;DHT22;58984;51.960;5.582;2023-06-10T12:25:06;30.30;49.20
71237;DHT22;58984;51.960;5.582;2023-06-10T12:27:33;30.40;49.10
71237;DHT22;58984;51.960;5.582;2023-06-10T12:30:00;30.40;49.00
71237;DHT22;58984;51.960;5.582;2023-06-10T12:32:43;30.40;49.10
71237;DHT22;58984;51.960;5.582;2023-06-10T12:35:11;30.30;49.00
71237;DHT22;58984;51.960;5.582;2023-06-10T12:37:41;30.40;48.80
71237;DHT22;58984;51.960;5.582;2023-06-10T12:40:07;30.40;48.80
71237;DHT22;58984;51.960;5.582;2023-06-10T12:42:36;30.50;48.70
71237;DHT22;58984;51.960;5.582;2023-06-10T12:45:03;30.40;48.60
71237;DHT22;58984;51.960;5.582;2023-06-10T12:47:33;30.50;48.40
71237;DHT22;58984;51.960;5.582;2023-06-10T12:50:01;30.50;48.50
71237;DHT22;58984;51.960;5.582;2023-06-10T12:52:27;30.50;48.50
71237;DHT22;58984;51.960;5.582;2023-06-10T12:54:53;30.50;48.50
71237;DHT22;58984;51.960;5.582;2023-06-10T12:57:23;30.50;48.50
71237;DHT22;58984;51.960;5.582;2023-06-10T12:59:48;30.50;48.40
71237;DHT22;58984;51.960;5.582;2023-06-10T13:02:21;30.50;48.50
71237;DHT22;58984;51.960;5.582;2023-06-10T13:04:51;30.50;48.40
71237;DHT22;58984;51.960;5.582;2023-06-10T13:07:17;30.60;48.40
71237;DHT22;58984;51.960;5.582;2023-06-10T13:09:43;30.60;48.20
71237;DHT22;58984;51.960;5.582;2023-06-10T13:12:09;30.60;48.20
71237;DHT22;58984;51.960;5.582;2023-06-10T13:14:36;30.60;48.10
71237;DHT22;58984;51.960;5.582;2023-06-10T13:17:03;30.60;48.30
71237;DHT22;58984;51.960;5.582;2023-06-10T13:19:31;30.60;48.20
71237;DHT22;58984;51.960;5.582;2023-06-10T13:21:57;30.60;47.90
71237;DHT22;58984;51.960;5.582;2023-06-10T13:24:23;30.60;48.10
71237;DHT22;58984;51.960;5.582;2023-06-10T13:26:48;30.60;48.10
71237;DHT22;58984;51.960;5.582;2023-06-10T13:29:14;30.70;48.00
71237;DHT22;58984;51.960;5.582;2023-06-10T13:31:40;30.60;47.90
71237;DHT22;58984;51.960;5.582;2023-06-10T13:34:06;30.70;48.00
71237;DHT22;58984;51.960;5.582;2023-06-10T13:36:32;30.70;47.90
71237;DHT22;58984;51.960;5.582;2023-06-10T13:38:58;30.60;47.90
71237;DHT22;58984;51.960;5.582;2023-06-10T13:41:23;30.70;47.90
71237;DHT22;58984;51.960;5.582;2023-06-10T13:43:50;30.70;47.90
71237;DHT22;58984;51.960;5.582;2023-06-10T13:46:15;30.70;47.70
71237;DHT22;58984;51.960;5.582;2023-06-10T13:48:41;30.70;47.90
71237;DHT22;58984;51.960;5.582;2023-06-10T13:51:07;30.70;47.80
71237;DHT22;58984;51.960;5.582;2023-06-10T13:53:34;30.70;47.80
71237;DHT22;58984;51.960;5.582;2023-06-10T13:56:00;30.70;47.80
71237;DHT22;58984;51.960;5.582;2023-06-10T13:58:25;30.70;47.70
71237;DHT22;58984;51.960;5.582;2023-06-10T14:00:51;30.70;47.60
71237;DHT22;58984;51.960;5.582;2023-06-10T14:03:16;30.70;47.60
71237;DHT22;58984;51.960;5.582;2023-06-10T14:05:42;30.70;47.60
71237;DHT22;58984;51.960;5.582;2023-06-10T14:08:08;30.70;47.60
71237;DHT22;58984;51.960;5.582;2023-06-10T14:10:33;30.70;47.50
71237;DHT22;58984;51.960;5.582;2023-06-10T14:12:59;30.60;47.00
71237;DHT22;58984;51.960;5.582;2023-06-10T14:15:25;30.70;47.30
71237;DHT22;58984;51.960;5.582;2023-06-10T14:17:51;30.70;47.20
71237;DHT22;58984;51.960;5.582;2023-06-10T14:20:16;30.70;47.90
71237;DHT22;58984;51.960;5.582;2023-06-10T14:22:42;30.70;47.30
71237;DHT22;58984;51.960;5.582;2023-06-10T14:25:08;30.70;47.20
71237;DHT22;58984;51.960;5.582;2023-06-10T14:27:34;30.70;46.90
71237;DHT22;58984;51.960;5.582;2023-06-10T14:29:59;30.70;47.00
71237;DHT22;58984;51.960;5.582;2023-06-10T14:32:25;30.70;47.10
71237;DHT22;58984;51.960;5.582;2023-06-10T14:34:50;30.70;46.70
71237;DHT22;58984;51.960;5.582;2023-06-10T14:37:16;30.70;46.90
71237;DHT22;58984;51.960;5.582;2023-06-10T14:39:41;30.70;46.50
71237;DHT22;58984;51.960;5.582;2023-06-10T14:42:07;30.70;46.90
71237;DHT22;58984;51.960;5.582;2023-06-10T14:44:33;30.60;46.80
71237;DHT22;58984;51.960;5.582;2023-06-10T14:46:58;30.70;46.80
71237;DHT22;58984;51.960;5.582;2023-06-10T14:49:24;30.70;46.90
71237;DHT22;58984;51.960;5.582;2023-06-10T14:51:49;30.60;46.80
71237;DHT22;58984;51.960;5.582;2023-06-10T14:54:15;30.60;46.60
71237;DHT22;58984;51.960;5.582;2023-06-10T14:56:41;30.60;46.30
71237;DHT22;58984;51.960;5.582;2023-06-10T14:59:07;30.60;46.80
71237;DHT22;58984;51.960;5.582;2023-06-10T15:01:32;30.60;46.30
71237;DHT22;58984;51.960;5.582;2023-06-10T15:03:58;30.60;46.30
71237;DHT22;58984;51.960;5.582;2023-06-10T15:06:23;30.60;46.30
71237;DHT22;58984;51.960;5.582;2023-06-10T15:08:49;30.60;46.30
71237;DHT22;58984;51.960;5.582;2023-06-10T15:11:15;30.60;46.30
71237;DHT22;58984;51.960;5.582;2023-06-10T15:13:41;30.60;46.30
71237;DHT22;58984;51.960;5.582;2023-06-10T15:16:06;30.60;46.30
71237;DHT22;58984;51.960;5.582;2023-06-10T15:18:32;30.60;46.30
71237;DHT22;58984;51.960;5.582;2023-06-10T15:20:58;30.50;46.20
71237;DHT22;58984;51.960;5.582;2023-06-10T15:23:24;30.60;46.30
71237;DHT22;58984;51.960;5.582;2023-06-10T15:25:50;30.60;46.30
71237;DHT22;58984;51.960;5.582;2023-06-10T15:28:15;30.60;46.70
71237;DHT22;58984;51.960;5.582;2023-06-10T15:30:41;30.50;46.70
71237;DHT22;58984;51.960;5.582;2023-06-10T15:33:06;30.50;46.80
71237;DHT22;58984;51.960;5.582;2023-06-10T15:35:32;30.50;46.80
71237;DHT22;58984;51.960;5.582;2023-06-10T15:37:58;30.40;46.70
71237;DHT22;58984;51.960;5.582;2023-06-10T15:40:24;30.50;46.80
71237;DHT22;58984;51.960;5.582;2023-06-10T15:42:50;30.50;46.90
71237;DHT22;58984;51.960;5.582;2023-06-10T15:45:15;30.40;46.80
71237;DHT22;58984;51.960;5.582;2023-06-10T15:47:41;30.40;46.70